Terminal Aerodrome Forecast
Issued by NWS

Home | Current Version | Previous Version | Text Only | Print | Product List | Glossary On
Versions: 1 2 3 4 5 6 7 8 9 10 11 12 13 14 15 16 17
636
FTUS46 KSTO 212337
TAFMHR
TAF
KMHR 212337Z 2200/2224 16015G25KT P6SM BKN050 OVC080
     FM220300 15020G25KT P6SM -RA OVC025
     FM220600 15025G35KT P6SM RA OVC015
     FM221200 15035G45KT P6SM RA OVC015
     FM221500 16022G33KT P6SM -RA OVC025
     FM222100 17012KT 4SM BR VCSH OVC025
      AMD NOT SKED=

USA.gov is the U.S. government's official web portal to all federal, state and local government web resources and services.